createdAt,value
2023-04-16T00:00:03.381Z,74.05
2023-04-16T00:02:38.796Z,74.02
2023-04-16T00:05:06.983Z,71.08
2023-04-16T00:07:34.463Z,70.95
2023-04-16T00:10:02.107Z,72.95
2023-04-16T00:12:29.650Z,73.49
2023-04-16T00:14:57.213Z,74.75
2023-04-16T00:17:25.211Z,76.08
2023-04-16T00:19:53.095Z,76.84
2023-04-16T00:22:20.555Z,76.99
2023-04-16T00:24:47.987Z,77.48
2023-04-16T00:27:15.484Z,78.34
2023-04-16T00:29:43.120Z,79.18
2023-04-16T00:32:10.572Z,80.06
2023-04-16T00:34:38.036Z,81.15
2023-04-16T00:37:05.455Z,81.48
2023-04-16T00:39:33.419Z,82.28
2023-04-16T00:42:01.002Z,82.75
2023-04-16T00:44:29.361Z,83.34
2023-04-16T00:46:57.826Z,83.80
2023-04-16T00:49:25.652Z,83.48
2023-04-16T00:51:53.170Z,83.42
2023-04-16T00:54:21.220Z,84.03
2023-04-16T00:56:49.483Z,83.99
2023-04-16T00:59:17.027Z,83.73
2023-04-16T01:01:44.626Z,83.79
2023-04-16T01:04:12.482Z,84.02
2023-04-16T01:06:40.082Z,84.94
2023-04-16T01:09:07.869Z,85.02
2023-04-16T01:11:37.150Z,84.80
2023-04-16T01:14:04.648Z,84.84
2023-04-16T01:16:33.361Z,85.32
2023-04-16T01:19:00.928Z,85.25
2023-04-16T01:21:28.698Z,85.24
2023-04-16T01:23:56.187Z,85.41
2023-04-16T01:26:23.712Z,85.61
2023-04-16T01:28:51.322Z,85.77
2023-04-16T01:31:18.845Z,85.81
2023-04-16T01:33:53.836Z,85.89
2023-04-16T01:36:21.344Z,86.05
2023-04-16T01:38:49.820Z,86.27
2023-04-16T01:41:17.308Z,86.41
2023-04-16T01:43:44.767Z,86.43
2023-04-16T01:46:20.489Z,86.51
2023-04-16T01:48:48.714Z,86.43
2023-04-16T01:51:16.210Z,86.26
2023-04-16T01:53:43.625Z,86.17
2023-04-16T01:56:11.101Z,86.22
2023-04-16T01:58:38.692Z,86.27
2023-04-16T02:01:06.554Z,86.34
2023-04-16T02:03:35.290Z,86.36
2023-04-16T02:06:04.876Z,86.36
2023-04-16T02:08:32.834Z,86.25
2023-04-16T02:11:01.453Z,86.27
2023-04-16T02:13:29.373Z,86.41
2023-04-16T02:15:56.965Z,86.32
2023-04-16T02:18:36.007Z,86.40
2023-04-16T02:21:03.951Z,86.40
2023-04-16T02:23:31.603Z,86.51
2023-04-16T02:26:01.097Z,86.67
2023-04-16T02:28:29.462Z,86.71
2023-04-16T02:30:57.639Z,86.72
2023-04-16T02:33:26.784Z,86.72
2023-04-16T02:36:03.668Z,86.58
2023-04-16T02:38:31.238Z,86.32
2023-04-16T02:40:59.455Z,86.10
2023-04-16T02:43:27.004Z,85.86
2023-04-16T02:45:54.460Z,85.63
2023-04-16T02:48:21.954Z,85.62
2023-04-16T02:50:49.434Z,85.68
2023-04-16T02:53:16.958Z,85.70
2023-04-16T02:55:52.898Z,85.81
2023-04-16T02:58:22.162Z,85.82
2023-04-16T03:00:50.262Z,85.94
2023-04-16T03:03:18.178Z,86.04
2023-04-16T03:05:45.887Z,86.16
2023-04-16T03:08:13.450Z,86.30
2023-04-16T03:10:41.787Z,86.41
2023-04-16T03:13:09.247Z,86.45
2023-04-16T03:15:36.909Z,86.49
2023-04-16T03:18:04.490Z,86.67
2023-04-16T03:20:32.261Z,86.72
2023-04-16T03:22:59.793Z,86.70
2023-04-16T03:25:27.412Z,86.50
2023-04-16T03:27:54.880Z,86.19
2023-04-16T03:30:22.393Z,85.87
2023-04-16T03:32:49.903Z,85.81
2023-04-16T03:35:17.547Z,85.70
2023-04-16T03:37:45.552Z,86.06
2023-04-16T03:40:13.873Z,86.18
2023-04-16T03:42:41.860Z,86.73
2023-04-16T03:45:09.884Z,87.01
2023-04-16T03:47:38.896Z,86.98
2023-04-16T03:50:06.967Z,87.06
2023-04-16T03:52:34.765Z,87.41
2023-04-16T03:55:03.958Z,87.72
2023-04-16T03:57:32.349Z,87.90
2023-04-16T04:00:09.389Z,88.33
2023-04-16T04:02:47.798Z,88.33
2023-04-16T04:05:19.502Z,88.24
2023-04-16T04:07:48.342Z,88.00
2023-04-16T04:10:16.418Z,87.77
2023-04-16T04:12:44.223Z,87.42
2023-04-16T04:15:12.208Z,87.00
2023-04-16T04:17:39.799Z,86.75
2023-04-16T04:20:07.985Z,86.61
2023-04-16T04:22:37.069Z,86.47
2023-04-16T04:25:04.999Z,86.29
2023-04-16T04:27:33.606Z,86.07
2023-04-16T04:30:01.228Z,85.83
2023-04-16T04:32:29.170Z,85.50
2023-04-16T04:34:56.627Z,85.20
2023-04-16T04:37:24.114Z,84.98
2023-04-16T04:39:51.642Z,85.05
2023-04-16T04:42:21.106Z,85.10
2023-04-16T04:44:48.884Z,85.23
2023-04-16T04:47:16.463Z,85.21
2023-04-16T04:49:44.052Z,85.07
2023-04-16T04:52:11.902Z,84.81
2023-04-16T04:54:41.841Z,84.76
2023-04-16T04:57:09.518Z,84.57
2023-04-16T04:59:37.019Z,84.50
2023-04-16T05:02:04.722Z,84.41
2023-04-16T05:04:32.279Z,84.31
2023-04-16T05:06:59.744Z,84.15
2023-04-16T05:09:27.353Z,84.20
2023-04-16T05:11:54.887Z,84.25
2023-04-16T05:14:22.384Z,84.11
2023-04-16T05:16:50.324Z,83.98
2023-04-16T05:19:17.871Z,83.95
2023-04-16T05:21:45.451Z,84.04
2023-04-16T05:24:14.787Z,84.08
2023-04-16T05:26:42.630Z,83.98
2023-04-16T05:29:10.308Z,83.96
2023-04-16T05:31:38.475Z,83.94
2023-04-16T05:34:05.979Z,83.97
2023-04-16T05:36:33.506Z,83.77
2023-04-16T05:39:01.117Z,83.46
2023-04-16T05:41:28.648Z,83.14
2023-04-16T05:43:56.260Z,82.92
2023-04-16T05:46:23.859Z,82.18
2023-04-16T05:48:51.508Z,82.13
2023-04-16T05:51:19.049Z,81.69
2023-04-16T05:53:46.553Z,81.04
2023-04-16T05:56:14.019Z,79.84
2023-04-16T05:58:41.524Z,78.79
2023-04-16T06:01:09.023Z,77.17
2023-04-16T06:03:36.674Z,76.14
2023-04-16T06:06:04.494Z,74.98
2023-04-16T06:08:31.931Z,73.55
2023-04-16T06:10:59.460Z,70.22
2023-04-16T06:13:26.892Z,70.21
2023-04-16T06:15:54.503Z,68.14
2023-04-16T06:18:22.009Z,67.10
2023-04-16T06:20:49.439Z,66.14
2023-04-16T06:23:17.115Z,65.98
2023-04-16T06:25:44.604Z,65.68
2023-04-16T06:28:12.060Z,64.78
2023-04-16T06:30:40.032Z,65.12
2023-04-16T06:33:07.614Z,65.63
2023-04-16T06:35:35.898Z,66.90
2023-04-16T06:38:03.251Z,67.67
2023-04-16T06:40:30.807Z,68.34
2023-04-16T06:42:58.435Z,67.91
2023-04-16T06:45:25.983Z,67.80
2023-04-16T06:47:53.519Z,66.93
2023-04-16T06:50:22.274Z,67.37
2023-04-16T06:52:49.807Z,66.56
2023-04-16T06:55:17.588Z,66.76
2023-04-16T06:57:45.391Z,66.31
2023-04-16T07:00:13.473Z,66.40
2023-04-16T07:02:41.398Z,64.51
2023-04-16T07:05:09.160Z,64.57
2023-04-16T07:07:36.633Z,62.28
2023-04-16T07:10:05.800Z,59.13
2023-04-16T07:12:33.765Z,57.49
2023-04-16T07:15:01.325Z,59.74
2023-04-16T07:17:28.828Z,57.75
2023-04-16T07:19:56.326Z,53.91
2023-04-16T07:22:23.793Z,51.96
2023-04-16T07:24:51.243Z,45.10
2023-04-16T07:27:18.836Z,42.72
2023-04-16T07:29:46.821Z,41.85
2023-04-16T07:32:15.470Z,44.27
2023-04-16T07:34:43.319Z,46.60
2023-04-16T07:37:10.865Z,42.16
2023-04-16T07:39:38.471Z,42.89
2023-04-16T07:42:06.542Z,45.98
2023-04-16T07:44:34.089Z,46.83
2023-04-16T07:47:03.552Z,48.21
2023-04-16T07:49:32.897Z,48.12
2023-04-16T07:52:00.511Z,49.40
2023-04-16T07:54:29.094Z,47.62
2023-04-16T07:56:56.726Z,43.57
2023-04-16T07:59:24.623Z,43.07
2023-04-16T08:01:54.005Z,44.99
2023-04-16T08:04:25.497Z,43.03
2023-04-16T08:06:54.319Z,42.80
2023-04-16T08:09:26.539Z,41.74
2023-04-16T08:11:54.275Z,37.46
2023-04-16T08:14:21.853Z,35.86
2023-04-16T08:16:51.429Z,35.02
2023-04-16T08:19:19.074Z,35.17
2023-04-16T08:21:47.246Z,37.64
2023-04-16T08:24:14.831Z,36.40
2023-04-16T08:26:42.323Z,34.94
2023-04-16T08:29:10.092Z,33.46
2023-04-16T08:31:37.953Z,34.50
2023-04-16T08:34:05.389Z,33.24
2023-04-16T08:36:32.937Z,33.88
2023-04-16T08:39:00.451Z,36.18
2023-04-16T08:41:32.756Z,37.48
2023-04-16T08:44:06.624Z,37.69
2023-04-16T08:46:38.153Z,37.60
2023-04-16T08:49:08.195Z,37.10
2023-04-16T08:51:36.264Z,39.49
2023-04-16T08:54:08.974Z,37.22
2023-04-16T08:56:41.653Z,38.41
2023-04-16T08:59:10.901Z,41.17
2023-04-16T09:01:41.655Z,39.01
2023-04-16T09:04:09.874Z,35.62
2023-04-16T09:06:38.872Z,37.32
2023-04-16T09:09:08.993Z,36.41
2023-04-16T09:11:38.950Z,35.96
2023-04-16T09:14:10.432Z,36.56
2023-04-16T09:16:39.164Z,36.27
2023-04-16T09:19:06.747Z,36.31
2023-04-16T09:21:34.286Z,36.62
2023-04-16T09:24:02.400Z,36.35
2023-04-16T09:26:31.197Z,36.61
2023-04-16T09:28:58.751Z,35.01
2023-04-16T09:31:26.237Z,35.97
2023-04-16T09:34:11.941Z,35.90
2023-04-16T09:36:39.398Z,36.57
2023-04-16T09:39:06.889Z,33.85
2023-04-16T09:41:39.720Z,33.67
2023-04-16T09:44:07.402Z,36.88
2023-04-16T09:46:45.144Z,35.39
2023-04-16T09:49:18.620Z,35.67
2023-04-16T09:51:56.121Z,35.97
2023-04-16T09:54:25.890Z,36.46
2023-04-16T09:56:57.437Z,35.95
2023-04-16T09:59:25.762Z,36.12
2023-04-16T10:02:14.624Z,35.25
2023-04-16T10:04:51.478Z,35.21
2023-04-16T10:07:20.252Z,35.54
2023-04-16T10:09:50.004Z,37.44
2023-04-16T10:12:17.607Z,36.79
2023-04-16T10:14:46.468Z,37.94
2023-04-16T10:17:18.419Z,39.64
2023-04-16T10:19:48.273Z,37.16
2023-04-16T10:22:16.173Z,37.31
2023-04-16T10:24:44.018Z,38.40
2023-04-16T10:27:12.355Z,39.21
2023-04-16T10:29:40.575Z,37.69
2023-04-16T10:32:09.799Z,38.91
2023-04-16T10:34:37.379Z,38.10
2023-04-16T10:37:05.019Z,37.02
2023-04-16T10:39:38.912Z,37.34
2023-04-16T10:42:14.389Z,37.15
2023-04-16T10:44:44.566Z,36.62
2023-04-16T10:47:14.482Z,37.70
2023-04-16T10:49:43.826Z,38.77
2023-04-16T10:52:18.032Z,38.62
2023-04-16T10:54:48.360Z,36.16
2023-04-16T10:57:19.699Z,38.08
2023-04-16T10:59:49.088Z,38.23
2023-04-16T11:02:19.218Z,36.81
2023-04-16T11:04:49.444Z,38.58
2023-04-16T11:07:21.108Z,39.16
2023-04-16T11:10:04.184Z,38.75
2023-04-16T11:12:57.857Z,39.51
2023-04-16T11:15:30.904Z,39.56
2023-04-16T11:17:58.485Z,39.30
2023-04-16T11:20:28.344Z,39.63
2023-04-16T11:22:58.027Z,40.59
2023-04-16T11:25:34.063Z,41.20
2023-04-16T11:28:02.868Z,43.09
2023-04-16T11:30:36.446Z,42.56
2023-04-16T11:33:06.079Z,43.48
2023-04-16T11:35:34.125Z,46.15
2023-04-16T11:38:01.440Z,45.26
2023-04-16T11:40:31.856Z,46.45
2023-04-16T11:43:17.145Z,45.89
2023-04-16T11:46:07.521Z,46.75
2023-04-16T11:48:54.457Z,45.03
2023-04-16T11:51:23.531Z,45.57
2023-04-16T11:53:54.126Z,45.80
2023-04-16T11:56:30.664Z,45.15
2023-04-16T11:59:10.361Z,45.58
2023-04-16T12:01:40.564Z,46.37
2023-04-16T12:04:09.666Z,46.96
2023-04-16T12:06:37.402Z,46.87
2023-04-16T12:09:27.403Z,46.44
2023-04-16T12:11:54.976Z,46.70
2023-04-16T12:14:23.572Z,47.60
2023-04-16T12:16:51.123Z,48.45
2023-04-16T12:19:19.208Z,49.07
2023-04-16T12:21:48.876Z,49.14
2023-04-16T12:24:23.930Z,49.61
2023-04-16T12:27:03.058Z,50.78
2023-04-16T12:29:31.929Z,51.42
2023-04-16T12:31:59.395Z,51.29
2023-04-16T12:34:41.897Z,49.71
2023-04-16T12:37:16.045Z,50.66
2023-04-16T12:39:43.877Z,49.71
2023-04-16T12:42:12.845Z,50.01
2023-04-16T12:44:40.765Z,49.64
2023-04-16T12:47:08.313Z,48.42
2023-04-16T12:49:38.295Z,47.78
2023-04-16T12:52:06.706Z,47.40
2023-04-16T12:54:34.383Z,48.06
2023-04-16T12:57:01.871Z,47.65
2023-04-16T12:59:30.691Z,48.10
2023-04-16T13:01:58.218Z,47.34
2023-04-16T13:04:27.299Z,46.88
2023-04-16T13:06:54.947Z,47.02
2023-04-16T13:09:22.463Z,48.12
2023-04-16T13:11:49.941Z,48.46
2023-04-16T13:14:17.821Z,47.78
2023-04-16T13:16:45.537Z,46.58
2023-04-16T13:19:13.398Z,46.58
2023-04-16T13:21:41.083Z,46.48
2023-04-16T13:24:08.521Z,46.98
2023-04-16T13:26:36.029Z,47.45
2023-04-16T13:29:03.752Z,47.83
2023-04-16T13:31:31.362Z,47.49
2023-04-16T13:33:58.940Z,48.45
2023-04-16T13:36:27.812Z,49.59
2023-04-16T13:38:55.481Z,49.08
2023-04-16T13:41:23.196Z,50.45
2023-04-16T13:43:50.756Z,51.54
2023-04-16T13:46:19.088Z,52.14
2023-04-16T13:48:46.962Z,53.87
2023-04-16T13:51:15.615Z,55.09
2023-04-16T13:53:43.089Z,56.04
2023-04-16T13:56:11.370Z,56.72
2023-04-16T13:58:39.055Z,59.50
2023-04-16T14:01:06.649Z,62.99
2023-04-16T14:03:38.902Z,66.21
2023-04-16T14:06:06.879Z,69.13
2023-04-16T14:08:34.463Z,70.67
2023-04-16T14:11:02.172Z,71.50
2023-04-16T14:13:29.656Z,72.20
2023-04-16T14:15:57.140Z,71.96
2023-04-16T14:18:24.583Z,72.05
2023-04-16T14:20:52.119Z,71.64
2023-04-16T14:23:19.560Z,70.54
2023-04-16T14:25:47.051Z,69.58
2023-04-16T14:28:15.704Z,68.32
2023-04-16T14:30:43.473Z,67.55
2023-04-16T14:33:10.961Z,67.06
2023-04-16T14:35:38.578Z,67.35
2023-04-16T14:38:06.486Z,66.87
2023-04-16T14:40:34.846Z,67.29
2023-04-16T14:43:02.324Z,67.67
2023-04-16T14:45:30.922Z,67.88
2023-04-16T14:47:58.475Z,68.76
2023-04-16T14:50:26.300Z,69.59
2023-04-16T14:52:54.637Z,70.41
2023-04-16T14:55:23.492Z,70.94
2023-04-16T14:57:51.286Z,72.37
2023-04-16T15:00:19.304Z,73.95
2023-04-16T15:02:48.185Z,75.02
2023-04-16T15:05:16.152Z,76.58
2023-04-16T15:07:43.752Z,76.13
2023-04-16T15:10:12.580Z,76.06
2023-04-16T15:12:40.463Z,77.87
2023-04-16T15:15:09.653Z,76.66
2023-04-16T15:17:37.330Z,77.22
2023-04-16T15:20:08.480Z,77.71
2023-04-16T15:22:36.104Z,79.15
2023-04-16T15:25:04.522Z,82.69
2023-04-16T15:27:33.380Z,84.10
2023-04-16T15:30:00.881Z,85.52
2023-04-16T15:32:28.538Z,86.20
2023-04-16T15:34:56.180Z,86.54
2023-04-16T15:37:24.088Z,86.67
2023-04-16T15:39:51.583Z,86.88
2023-04-16T15:42:19.085Z,87.26
2023-04-16T15:44:46.554Z,87.20
2023-04-16T15:47:13.985Z,87.24
2023-04-16T15:49:42.414Z,87.53
2023-04-16T15:52:11.761Z,87.62
2023-04-16T15:54:39.336Z,87.79
2023-04-16T15:57:06.913Z,88.10
2023-04-16T15:59:34.587Z,88.40
2023-04-16T16:02:02.608Z,88.84
2023-04-16T16:04:30.441Z,89.17
2023-04-16T16:06:58.032Z,89.46
2023-04-16T16:09:27.212Z,89.65
2023-04-16T16:11:55.728Z,89.73
2023-04-16T16:14:23.381Z,89.86
2023-04-16T16:16:51.274Z,90.01
2023-04-16T16:19:18.893Z,89.82
2023-04-16T16:21:46.923Z,89.89
2023-04-16T16:24:14.412Z,89.88
2023-04-16T16:26:41.977Z,89.73
2023-04-16T16:29:09.750Z,89.79
2023-04-16T16:31:37.561Z,89.66
2023-04-16T16:34:04.997Z,89.67
2023-04-16T16:36:36.643Z,89.78
2023-04-16T16:39:04.830Z,89.82
2023-04-16T16:41:32.366Z,89.87
2023-04-16T16:44:00.107Z,89.87
2023-04-16T16:46:27.676Z,89.83
2023-04-16T16:48:55.278Z,89.72
2023-04-16T16:51:22.744Z,89.88
2023-04-16T16:53:50.359Z,89.97
2023-04-16T16:56:18.836Z,90.21
2023-04-16T16:58:46.423Z,90.26
2023-04-16T17:01:13.863Z,90.49
2023-04-16T17:03:41.540Z,90.31
2023-04-16T17:06:09.135Z,90.34
2023-04-16T17:08:36.684Z,90.52
2023-04-16T17:11:04.685Z,90.98
2023-04-16T17:13:32.843Z,90.72
2023-04-16T17:16:01.089Z,90.59
2023-04-16T17:18:30.341Z,90.63
2023-04-16T17:20:57.919Z,90.71
2023-04-16T17:23:25.605Z,90.60
2023-04-16T17:25:53.234Z,90.62
2023-04-16T17:28:21.137Z,90.77
2023-04-16T17:30:53.239Z,91.00
2023-04-16T17:33:20.812Z,91.18
2023-04-16T17:35:48.380Z,91.00
2023-04-16T17:38:15.963Z,90.94
2023-04-16T17:40:43.510Z,91.12
2023-04-16T17:43:10.999Z,91.12
2023-04-16T17:45:38.632Z,91.11
2023-04-16T17:48:06.549Z,91.14
2023-04-16T17:50:34.162Z,91.34
2023-04-16T17:53:03.862Z,91.40
2023-04-16T17:55:31.862Z,91.55
2023-04-16T17:58:00.398Z,91.64
2023-04-16T18:00:27.843Z,91.73
2023-04-16T18:02:56.749Z,91.83
2023-04-16T18:05:24.669Z,91.85
2023-04-16T18:07:54.644Z,92.11
2023-04-16T18:10:22.285Z,92.28
2023-04-16T18:12:49.766Z,92.29
2023-04-16T18:15:17.404Z,92.61
2023-04-16T18:17:44.840Z,92.74
2023-04-16T18:20:12.699Z,93.04
2023-04-16T18:22:40.378Z,93.13
2023-04-16T18:25:08.378Z,92.96
2023-04-16T18:27:36.943Z,93.04
2023-04-16T18:30:06.012Z,92.98
2023-04-16T18:32:33.772Z,92.92
2023-04-16T18:35:01.569Z,92.84
2023-04-16T18:37:29.020Z,92.79
2023-04-16T18:39:58.046Z,92.84
2023-04-16T18:42:29.553Z,92.81
2023-04-16T18:44:57.209Z,92.89
2023-04-16T18:47:25.540Z,92.90
2023-04-16T18:49:53.071Z,92.98
2023-04-16T18:52:20.539Z,92.96
2023-04-16T18:54:48.048Z,93.08
2023-04-16T18:57:16.829Z,93.08
2023-04-16T18:59:44.423Z,93.05
2023-04-16T19:02:13.110Z,93.04
2023-04-16T19:04:40.802Z,93.08
2023-04-16T19:07:08.851Z,93.04
2023-04-16T19:09:36.389Z,92.95
2023-04-16T19:12:05.583Z,92.84
2023-04-16T19:14:33.071Z,92.99
2023-04-16T19:17:00.529Z,93.01
2023-04-16T19:19:27.965Z,93.04
2023-04-16T19:21:55.618Z,93.11
2023-04-16T19:24:23.605Z,93.08
2023-04-16T19:26:52.501Z,93.05
2023-04-16T19:29:20.034Z,93.05
2023-04-16T19:31:47.711Z,93.15
2023-04-16T19:34:15.822Z,93.22
2023-04-16T19:36:44.481Z,93.31
2023-04-16T19:39:12.303Z,93.22
2023-04-16T19:41:39.890Z,93.17
2023-04-16T19:44:07.432Z,93.15
2023-04-16T19:46:34.906Z,93.04
2023-04-16T19:49:03.878Z,92.93
2023-04-16T19:51:31.292Z,92.88
2023-04-16T19:53:59.126Z,92.77
2023-04-16T19:56:27.184Z,92.88
2023-04-16T19:58:54.668Z,92.76
2023-04-16T20:01:25.099Z,92.70
2023-04-16T20:03:53.154Z,92.60
2023-04-16T20:06:20.711Z,92.52
2023-04-16T20:08:48.158Z,92.51
2023-04-16T20:11:15.732Z,92.59
2023-04-16T20:13:46.390Z,92.57
2023-04-16T20:16:14.147Z,92.55
2023-04-16T20:18:42.596Z,92.48
2023-04-16T20:21:11.642Z,92.36
2023-04-16T20:23:38.991Z,92.37
2023-04-16T20:26:07.032Z,92.28
2023-04-16T20:28:34.684Z,92.40
2023-04-16T20:31:02.170Z,92.31
2023-04-16T20:33:29.633Z,92.33
2023-04-16T20:35:58.475Z,92.42
2023-04-16T20:38:29.623Z,92.45
2023-04-16T20:41:20.409Z,92.49
2023-04-16T20:43:50.287Z,92.73
2023-04-16T20:46:17.875Z,92.75
2023-04-16T20:48:45.402Z,92.97
2023-04-16T20:51:13.054Z,92.96
2023-04-16T20:53:40.761Z,92.94
2023-04-16T20:56:10.140Z,92.95
2023-04-16T20:58:37.692Z,92.88
2023-04-16T21:01:05.968Z,92.87
2023-04-16T21:03:33.863Z,92.87
2023-04-16T21:06:01.901Z,92.78
2023-04-16T21:08:29.901Z,92.72
2023-04-16T21:10:57.481Z,92.68
2023-04-16T21:13:25.022Z,92.61
2023-04-16T21:15:52.969Z,92.54
2023-04-16T21:18:21.575Z,92.54
2023-04-16T21:20:49.053Z,92.54
2023-04-16T21:23:16.594Z,92.50
2023-04-16T21:25:45.237Z,92.55
2023-04-16T21:28:12.797Z,92.53
2023-04-16T21:30:40.580Z,92.65
2023-04-16T21:33:08.747Z,92.62
2023-04-16T21:35:36.211Z,92.61
2023-04-16T21:38:03.753Z,92.62
2023-04-16T21:40:31.185Z,92.71
2023-04-16T21:42:58.629Z,92.62
2023-04-16T21:45:26.061Z,92.66
2023-04-16T21:47:53.584Z,92.62
2023-04-16T21:50:21.063Z,92.73
2023-04-16T21:52:49.204Z,92.85
2023-04-16T21:55:16.764Z,92.91
2023-04-16T21:57:44.346Z,92.97
2023-04-16T22:00:13.891Z,93.04
2023-04-16T22:02:42.730Z,92.96
2023-04-16T22:05:11.639Z,92.95
2023-04-16T22:07:39.331Z,92.99
2023-04-16T22:10:08.807Z,93.01
2023-04-16T22:12:39.811Z,92.95
2023-04-16T22:15:09.070Z,92.98
2023-04-16T22:17:38.140Z,93.10
2023-04-16T22:20:12.446Z,93.27
2023-04-16T22:22:41.597Z,93.21
2023-04-16T22:25:10.032Z,93.18
2023-04-16T22:27:37.842Z,93.15
2023-04-16T22:30:08.369Z,93.19
2023-04-16T22:32:36.063Z,93.11
2023-04-16T22:35:03.923Z,93.11
2023-04-16T22:37:31.468Z,93.05
2023-04-16T22:39:58.923Z,93.03
2023-04-16T22:42:27.076Z,93.06
2023-04-16T22:44:54.562Z,92.99
2023-04-16T22:47:22.659Z,93.01
2023-04-16T22:49:50.288Z,92.98
2023-04-16T22:52:17.712Z,92.93
2023-04-16T22:54:45.185Z,92.96
2023-04-16T22:57:13.233Z,92.97
2023-04-16T22:59:40.819Z,92.93
2023-04-16T23:02:08.496Z,92.95
2023-04-16T23:04:36.068Z,92.87
2023-04-16T23:07:03.552Z,92.82
2023-04-16T23:09:31.463Z,92.74
2023-04-16T23:11:59.209Z,92.77
2023-04-16T23:14:26.796Z,92.74
2023-04-16T23:16:54.258Z,92.72
2023-04-16T23:19:21.782Z,92.66
2023-04-16T23:21:49.276Z,92.65
2023-04-16T23:24:17.274Z,92.66
2023-04-16T23:26:44.789Z,92.84
2023-04-16T23:29:12.504Z,92.79
2023-04-16T23:31:40.286Z,92.79
2023-04-16T23:34:07.853Z,92.79
2023-04-16T23:36:35.328Z,92.83
2023-04-16T23:39:04.349Z,92.93
2023-04-16T23:41:31.964Z,92.92
2023-04-16T23:43:59.369Z,92.93
2023-04-16T23:46:26.930Z,92.95
2023-04-16T23:48:55.423Z,92.88
2023-04-16T23:51:23.042Z,92.89
2023-04-16T23:53:50.520Z,92.84
2023-04-16T23:56:18.411Z,92.81
2023-04-16T23:58:45.905Z,92.78
